sensor_id;sensor_type;location;lat;lon;timestamp;pressure;altitude;pressure_sealevel;temperature;humidity
68137;BME280;54939;50.826;9.030;2023-02-15T00:00:18;100140.91;;;6.54;68.94
68137;BME280;54939;50.826;9.030;2023-02-15T00:00:48;100145.34;;;6.53;68.90
68137;BME280;54939;50.826;9.030;2023-02-15T00:01:19;100150.66;;;6.53;68.73
68137;BME280;54939;50.826;9.030;2023-02-15T00:01:49;100148.00;;;6.53;68.75
68137;BME280;54939;50.826;9.030;2023-02-15T00:02:19;100146.19;;;6.54;69.04
68137;BME280;54939;50.826;9.030;2023-02-15T00:02:50;100148.84;;;6.54;68.91
68137;BME280;54939;50.826;9.030;2023-02-15T00:03:20;100141.84;;;6.53;68.85
68137;BME280;54939;50.826;9.030;2023-02-15T00:03:51;100144.50;;;6.53;68.86
68137;BME280;54939;50.826;9.030;2023-02-15T00:04:22;100145.34;;;6.53;68.83
68137;BME280;54939;50.826;9.030;2023-02-15T00:04:52;100140.91;;;6.54;68.85
68137;BME280;54939;50.826;9.030;2023-02-15T00:05:23;100143.47;;;6.55;68.98
68137;BME280;54939;50.826;9.030;2023-02-15T00:05:56;100145.34;;;6.53;68.72
68137;BME280;54939;50.826;9.030;2023-02-15T00:06:26;100152.38;;;6.54;68.80
68137;BME280;54939;50.826;9.030;2023-02-15T00:06:56;100148.00;;;6.53;68.80
68137;BME280;54939;50.826;9.030;2023-02-15T00:07:26;100147.13;;;6.53;69.02
68137;BME280;54939;50.826;9.030;2023-02-15T00:07:57;100148.84;;;6.54;68.74
68137;BME280;54939;50.826;9.030;2023-02-15T00:08:27;100142.69;;;6.53;68.85
68137;BME280;54939;50.826;9.030;2023-02-15T00:08:57;100146.19;;;6.54;68.99
68137;BME280;54939;50.826;9.030;2023-02-15T00:09:27;100140.91;;;6.54;68.40
68137;BME280;54939;50.826;9.030;2023-02-15T00:09:57;100150.66;;;6.53;68.76
68137;BME280;54939;50.826;9.030;2023-02-15T00:10:28;100145.44;;;6.52;68.95
68137;BME280;54939;50.826;9.030;2023-02-15T00:11:06;100148.00;;;6.53;68.91
68137;BME280;54939;50.826;9.030;2023-02-15T00:11:37;100148.00;;;6.53;69.06
68137;BME280;54939;50.826;9.030;2023-02-15T00:12:10;100144.41;;;6.54;68.48
68137;BME280;54939;50.826;9.030;2023-02-15T00:12:40;100140.97;;;6.52;68.92
68137;BME280;54939;50.826;9.030;2023-02-15T00:13:10;100143.63;;;6.52;68.96
68137;BME280;54939;50.826;9.030;2023-02-15T00:13:41;100148.00;;;6.53;68.89
68137;BME280;54939;50.826;9.030;2023-02-15T00:14:13;100143.53;;;6.54;68.69
68137;BME280;54939;50.826;9.030;2023-02-15T00:14:43;100146.19;;;6.54;68.65
68137;BME280;54939;50.826;9.030;2023-02-15T00:15:13;100142.69;;;6.53;68.58
68137;BME280;54939;50.826;9.030;2023-02-15T00:15:43;100142.69;;;6.53;68.41
68137;BME280;54939;50.826;9.030;2023-02-15T00:16:14;100146.19;;;6.54;68.73
68137;BME280;54939;50.826;9.030;2023-02-15T00:16:44;100137.38;;;6.53;68.74
68137;BME280;54939;50.826;9.030;2023-02-15T00:17:14;100143.63;;;6.52;68.97
68137;BME280;54939;50.826;9.030;2023-02-15T00:17:44;100140.13;;;6.52;68.93
68137;BME280;54939;50.826;9.030;2023-02-15T00:18:14;100133.97;;;6.51;69.03
68137;BME280;54939;50.826;9.030;2023-02-15T00:18:45;100140.13;;;6.52;68.98
68137;BME280;54939;50.826;9.030;2023-02-15T00:19:16;100136.63;;;6.51;68.64
68137;BME280;54939;50.826;9.030;2023-02-15T00:19:46;100139.28;;;6.51;68.83
68137;BME280;54939;50.826;9.030;2023-02-15T00:20:16;100132.16;;;6.52;68.68
68137;BME280;54939;50.826;9.030;2023-02-15T00:20:48;100138.31;;;6.52;68.87
68137;BME280;54939;50.826;9.030;2023-02-15T00:21:18;100131.22;;;6.53;68.74
68137;BME280;54939;50.826;9.030;2023-02-15T00:21:48;100131.22;;;6.53;68.65
68137;BME280;54939;50.826;9.030;2023-02-15T00:22:18;100127.72;;;6.52;68.70
68137;BME280;54939;50.826;9.030;2023-02-15T00:22:49;100127.81;;;6.51;68.69
68137;BME280;54939;50.826;9.030;2023-02-15T00:23:19;100133.88;;;6.53;68.71
68137;BME280;54939;50.826;9.030;2023-02-15T00:23:49;100133.88;;;6.53;68.82
68137;BME280;54939;50.826;9.030;2023-02-15T00:24:19;100131.22;;;6.53;68.95
68137;BME280;54939;50.826;9.030;2023-02-15T00:24:49;100131.22;;;6.53;68.76
68137;BME280;54939;50.826;9.030;2023-02-15T00:25:20;100126.84;;;6.52;68.63
68137;BME280;54939;50.826;9.030;2023-02-15T00:25:50;100127.72;;;6.52;68.89
68137;BME280;54939;50.826;9.030;2023-02-15T00:26:20;100129.50;;;6.52;68.82
68137;BME280;54939;50.826;9.030;2023-02-15T00:26:50;100128.56;;;6.53;68.88
68137;BME280;54939;50.826;9.030;2023-02-15T00:27:20;100126.78;;;6.53;68.71
68137;BME280;54939;50.826;9.030;2023-02-15T00:27:51;100131.13;;;6.54;68.65
68137;BME280;54939;50.826;9.030;2023-02-15T00:28:21;100122.31;;;6.54;68.79
68137;BME280;54939;50.826;9.030;2023-02-15T00:28:52;100130.28;;;6.54;68.60
68137;BME280;54939;50.826;9.030;2023-02-15T00:29:22;100126.78;;;6.53;68.80
68137;BME280;54939;50.826;9.030;2023-02-15T00:29:52;100126.84;;;6.52;69.01
68137;BME280;54939;50.826;9.030;2023-02-15T00:30:22;100121.56;;;6.52;68.93
68137;BME280;54939;50.826;9.030;2023-02-15T00:30:52;100124.22;;;6.52;69.13
68137;BME280;54939;50.826;9.030;2023-02-15T00:31:23;100126.84;;;6.52;68.82
68137;BME280;54939;50.826;9.030;2023-02-15T00:31:53;100124.22;;;6.52;68.70
68137;BME280;54939;50.826;9.030;2023-02-15T00:32:23;100117.09;;;6.52;68.73
68137;BME280;54939;50.826;9.030;2023-02-15T00:32:53;100121.47;;;6.53;68.68
68137;BME280;54939;50.826;9.030;2023-02-15T00:33:24;100121.56;;;6.52;68.92
68137;BME280;54939;50.826;9.030;2023-02-15T00:33:54;100119.75;;;6.52;68.88
68137;BME280;54939;50.826;9.030;2023-02-15T00:34:26;100126.78;;;6.53;68.76
68137;BME280;54939;50.826;9.030;2023-02-15T00:34:56;100121.47;;;6.53;68.69
68137;BME280;54939;50.826;9.030;2023-02-15T00:35:26;100122.41;;;6.52;68.75
68137;BME280;54939;50.826;9.030;2023-02-15T00:35:57;100115.38;;;6.51;68.75
68137;BME280;54939;50.826;9.030;2023-02-15T00:36:27;100120.69;;;6.51;69.01
68137;BME280;54939;50.826;9.030;2023-02-15T00:36:57;100120.69;;;6.51;68.81
68137;BME280;54939;50.826;9.030;2023-02-15T00:37:27;100118.03;;;6.51;68.75
68137;BME280;54939;50.826;9.030;2023-02-15T00:37:58;100115.31;;;6.53;68.88
68137;BME280;54939;50.826;9.030;2023-02-15T00:38:28;100121.47;;;6.53;68.46
68137;BME280;54939;50.826;9.030;2023-02-15T00:38:59;100115.31;;;6.53;68.71
68137;BME280;54939;50.826;9.030;2023-02-15T00:39:29;100116.25;;;6.52;68.84
68137;BME280;54939;50.826;9.030;2023-02-15T00:39:59;100110.09;;;6.51;68.79
68137;BME280;54939;50.826;9.030;2023-02-15T00:40:29;100117.09;;;6.52;68.83
68137;BME280;54939;50.826;9.030;2023-02-15T00:41:00;100120.59;;;6.53;68.58
68137;BME280;54939;50.826;9.030;2023-02-15T00:41:31;100115.31;;;6.53;68.69
68137;BME280;54939;50.826;9.030;2023-02-15T00:42:01;100119.75;;;6.52;68.69
68137;BME280;54939;50.826;9.030;2023-02-15T00:42:32;100116.16;;;6.53;68.65
68137;BME280;54939;50.826;9.030;2023-02-15T00:43:02;100116.16;;;6.53;68.75
68137;BME280;54939;50.826;9.030;2023-02-15T00:43:32;100115.22;;;6.54;68.57
68137;BME280;54939;50.826;9.030;2023-02-15T00:44:03;100117.00;;;6.54;68.61
68137;BME280;54939;50.826;9.030;2023-02-15T00:44:33;100117.09;;;6.52;68.84
68137;BME280;54939;50.826;9.030;2023-02-15T00:45:03;100113.50;;;6.53;68.69
68137;BME280;54939;50.826;9.030;2023-02-15T00:45:33;100110.84;;;6.53;68.76
68137;BME280;54939;50.826;9.030;2023-02-15T00:46:04;100112.75;;;6.51;68.85
68137;BME280;54939;50.826;9.030;2023-02-15T00:46:34;100112.75;;;6.51;68.92
68137;BME280;54939;50.826;9.030;2023-02-15T00:47:05;100112.75;;;6.51;68.82
68137;BME280;54939;50.826;9.030;2023-02-15T00:47:35;100113.59;;;6.52;68.64
68137;BME280;54939;50.826;9.030;2023-02-15T00:48:05;100114.38;;;6.54;68.77
68137;BME280;54939;50.826;9.030;2023-02-15T00:48:35;100112.66;;;6.53;68.78
68137;BME280;54939;50.826;9.030;2023-02-15T00:49:05;100111.72;;;6.54;68.62
68137;BME280;54939;50.826;9.030;2023-02-15T00:49:35;100117.09;;;6.52;68.81
68137;BME280;54939;50.826;9.030;2023-02-15T00:50:06;100109.13;;;6.52;68.84
68137;BME280;54939;50.826;9.030;2023-02-15T00:50:36;100110.00;;;6.53;68.91
68137;BME280;54939;50.826;9.030;2023-02-15T00:51:06;100115.38;;;6.51;68.97
68137;BME280;54939;50.826;9.030;2023-02-15T00:51:36;100110.09;;;6.51;69.03
68137;BME280;54939;50.826;9.030;2023-02-15T00:52:07;100111.78;;;6.52;68.90
68137;BME280;54939;50.826;9.030;2023-02-15T00:52:37;100110.84;;;6.53;68.92
68137;BME280;54939;50.826;9.030;2023-02-15T00:53:07;100110.94;;;6.52;68.71
68137;BME280;54939;50.826;9.030;2023-02-15T00:53:38;100112.75;;;6.51;68.68
68137;BME280;54939;50.826;9.030;2023-02-15T00:54:08;100119.75;;;6.52;69.04
68137;BME280;54939;50.826;9.030;2023-02-15T00:54:38;100110.09;;;6.51;68.94
68137;BME280;54939;50.826;9.030;2023-02-15T00:55:08;100110.09;;;6.51;68.74
68137;BME280;54939;50.826;9.030;2023-02-15T00:55:38;100110.09;;;6.51;68.74
68137;BME280;54939;50.826;9.030;2023-02-15T00:56:10;100101.28;;;6.51;68.91
68137;BME280;54939;50.826;9.030;2023-02-15T00:56:40;100105.72;;;6.50;69.08
68137;BME280;54939;50.826;9.030;2023-02-15T00:57:10;100106.69;;;6.49;68.76
68137;BME280;54939;50.826;9.030;2023-02-15T00:57:40;100107.56;;;6.50;68.74
68137;BME280;54939;50.826;9.030;2023-02-15T00:58:11;100106.69;;;6.49;69.08
68137;BME280;54939;50.826;9.030;2023-02-15T00:58:41;100105.72;;;6.50;68.75
68137;BME280;54939;50.826;9.030;2023-02-15T00:59:12;100115.50;;;6.50;68.55
68137;BME280;54939;50.826;9.030;2023-02-15T00:59:42;100103.19;;;6.49;69.15
68137;BME280;54939;50.826;9.030;2023-02-15T01:00:12;100107.56;;;6.50;69.13
68137;BME280;54939;50.826;9.030;2023-02-15T01:00:44;100106.69;;;6.49;69.02
68137;BME280;54939;50.826;9.030;2023-02-15T01:01:15;100111.03;;;6.50;68.60
68137;BME280;54939;50.826;9.030;2023-02-15T01:01:46;100108.38;;;6.50;68.62
68137;BME280;54939;50.826;9.030;2023-02-15T01:02:16;100103.94;;;6.51;68.80
68137;BME280;54939;50.826;9.030;2023-02-15T01:02:47;100103.84;;;6.52;68.61
68137;BME280;54939;50.826;9.030;2023-02-15T01:03:17;100106.50;;;6.52;69.10
68137;BME280;54939;50.826;9.030;2023-02-15T01:03:48;100107.34;;;6.53;68.73
68137;BME280;54939;50.826;9.030;2023-02-15T01:04:18;100107.34;;;6.53;68.89
68137;BME280;54939;50.826;9.030;2023-02-15T01:04:48;100101.28;;;6.51;68.83
68137;BME280;54939;50.826;9.030;2023-02-15T01:05:18;100105.63;;;6.52;68.84
68137;BME280;54939;50.826;9.030;2023-02-15T01:05:48;100101.19;;;6.52;68.64
68137;BME280;54939;50.826;9.030;2023-02-15T01:06:19;100103.84;;;6.52;68.88
68137;BME280;54939;50.826;9.030;2023-02-15T01:06:49;100097.69;;;6.52;68.73
68137;BME280;54939;50.826;9.030;2023-02-15T01:07:19;100100.31;;;6.52;68.93
68137;BME280;54939;50.826;9.030;2023-02-15T01:07:49;100102.13;;;6.51;68.81
68137;BME280;54939;50.826;9.030;2023-02-15T01:08:19;100103.94;;;6.51;68.84
68137;BME280;54939;50.826;9.030;2023-02-15T01:08:49;100098.72;;;6.49;68.86
68137;BME280;54939;50.826;9.030;2023-02-15T01:09:20;100097.75;;;6.50;68.84
68137;BME280;54939;50.826;9.030;2023-02-15T01:09:50;100096.09;;;6.49;68.87
68137;BME280;54939;50.826;9.030;2023-02-15T01:10:20;100102.13;;;6.51;68.96
68137;BME280;54939;50.826;9.030;2023-02-15T01:10:50;100104.78;;;6.51;68.84
68137;BME280;54939;50.826;9.030;2023-02-15T01:11:21;100097.69;;;6.52;68.83
68137;BME280;54939;50.826;9.030;2023-02-15T01:11:51;100102.13;;;6.51;68.75
68137;BME280;54939;50.826;9.030;2023-02-15T01:12:21;100097.69;;;6.52;68.99
68137;BME280;54939;50.826;9.030;2023-02-15T01:12:52;100107.34;;;6.53;68.93
68137;BME280;54939;50.826;9.030;2023-02-15T01:13:22;100101.19;;;6.52;68.69
68137;BME280;54939;50.826;9.030;2023-02-15T01:13:53;100100.31;;;6.52;68.78
68137;BME280;54939;50.826;9.030;2023-02-15T01:14:24;100102.13;;;6.51;68.62
68137;BME280;54939;50.826;9.030;2023-02-15T01:14:54;100100.41;;;6.50;69.13
68137;BME280;54939;50.826;9.030;2023-02-15T01:15:24;100103.06;;;6.50;68.82
68137;BME280;54939;50.826;9.030;2023-02-15T01:15:54;100110.09;;;6.51;68.49
68137;BME280;54939;50.826;9.030;2023-02-15T01:16:25;100105.72;;;6.50;68.79
68137;BME280;54939;50.826;9.030;2023-02-15T01:16:56;100107.44;;;6.51;69.11
68137;BME280;54939;50.826;9.030;2023-02-15T01:17:26;100103.94;;;6.51;68.81
68137;BME280;54939;50.826;9.030;2023-02-15T01:17:56;100108.38;;;6.50;68.80
68137;BME280;54939;50.826;9.030;2023-02-15T01:18:26;100101.28;;;6.51;68.65
68137;BME280;54939;50.826;9.030;2023-02-15T01:18:56;100104.91;;;6.50;68.91
68137;BME280;54939;50.826;9.030;2023-02-15T01:19:27;100103.06;;;6.50;68.88
68137;BME280;54939;50.826;9.030;2023-02-15T01:19:57;100109.34;;;6.49;68.80
68137;BME280;54939;50.826;9.030;2023-02-15T01:20:27;100102.34;;;6.48;68.43
68137;BME280;54939;50.826;9.030;2023-02-15T01:20:58;100109.34;;;6.49;68.82
68137;BME280;54939;50.826;9.030;2023-02-15T01:21:28;100106.69;;;6.49;68.69
68137;BME280;54939;50.826;9.030;2023-02-15T01:21:59;100109.22;;;6.51;68.70
68137;BME280;54939;50.826;9.030;2023-02-15T01:22:29;100105.72;;;6.50;68.54
68137;BME280;54939;50.826;9.030;2023-02-15T01:22:59;100111.88;;;6.51;69.05
68137;BME280;54939;50.826;9.030;2023-02-15T01:23:29;100106.56;;;6.51;68.70
68137;BME280;54939;50.826;9.030;2023-02-15T01:24:00;100111.03;;;6.50;68.54
68137;BME280;54939;50.826;9.030;2023-02-15T01:24:30;100104.03;;;6.49;68.65
68137;BME280;54939;50.826;9.030;2023-02-15T01:25:00;100106.56;;;6.51;68.62
68137;BME280;54939;50.826;9.030;2023-02-15T01:25:32;100112.84;;;6.50;68.94
68137;BME280;54939;50.826;9.030;2023-02-15T01:26:02;100100.41;;;6.50;68.71
68137;BME280;54939;50.826;9.030;2023-02-15T01:26:33;100110.09;;;6.51;68.49
68137;BME280;54939;50.826;9.030;2023-02-15T01:27:03;100106.69;;;6.49;68.79
68137;BME280;54939;50.826;9.030;2023-02-15T01:27:33;100111.03;;;6.50;68.73
68137;BME280;54939;50.826;9.030;2023-02-15T01:28:03;100106.56;;;6.51;68.78
68137;BME280;54939;50.826;9.030;2023-02-15T01:28:34;100108.38;;;6.50;68.75
68137;BME280;54939;50.826;9.030;2023-02-15T01:29:04;100110.09;;;6.51;68.50
68137;BME280;54939;50.826;9.030;2023-02-15T01:29:34;100105.72;;;6.50;68.66
68137;BME280;54939;50.826;9.030;2023-02-15T01:30:05;100101.28;;;6.51;68.66
68137;BME280;54939;50.826;9.030;2023-02-15T01:30:35;100104.91;;;6.50;68.47
68137;BME280;54939;50.826;9.030;2023-02-15T01:31:09;100108.50;;;6.49;68.91
68137;BME280;54939;50.826;9.030;2023-02-15T01:31:40;100108.50;;;6.49;68.78
68137;BME280;54939;50.826;9.030;2023-02-15T01:32:10;100112.94;;;6.48;68.73
68137;BME280;54939;50.826;9.030;2023-02-15T01:32:40;100107.63;;;6.48;68.62
68137;BME280;54939;50.826;9.030;2023-02-15T01:33:11;100100.53;;;6.49;68.93
68137;BME280;54939;50.826;9.030;2023-02-15T01:33:47;100104.13;;;6.48;68.76
68137;BME280;54939;50.826;9.030;2023-02-15T01:34:17;100102.34;;;6.48;68.49
68137;BME280;54939;50.826;9.030;2023-02-15T01:34:47;100109.34;;;6.49;68.74
68137;BME280;54939;50.826;9.030;2023-02-15T01:35:18;100104.97;;;6.48;68.62
68137;BME280;54939;50.826;9.030;2023-02-15T01:35:48;100101.47;;;6.48;68.87
68137;BME280;54939;50.826;9.030;2023-02-15T01:36:19;100101.56;;;6.46;68.96
68137;BME280;54939;50.826;9.030;2023-02-15T01:36:49;100097.13;;;6.47;68.88
68137;BME280;54939;50.826;9.030;2023-02-15T01:37:19;100106.78;;;6.48;69.03
68137;BME280;54939;50.826;9.030;2023-02-15T01:37:50;100107.63;;;6.48;68.88
68137;BME280;54939;50.826;9.030;2023-02-15T01:38:20;100107.63;;;6.48;68.60
68137;BME280;54939;50.826;9.030;2023-02-15T01:38:50;100102.34;;;6.48;68.82
68137;BME280;54939;50.826;9.030;2023-02-15T01:39:20;100098.72;;;6.49;68.72
68137;BME280;54939;50.826;9.030;2023-02-15T01:39:51;100097.88;;;6.49;68.93
68137;BME280;54939;50.826;9.030;2023-02-15T01:40:21;100097.03;;;6.48;68.81
68137;BME280;54939;50.826;9.030;2023-02-15T01:40:52;100096.16;;;6.48;68.82
68137;BME280;54939;50.826;9.030;2023-02-15T01:41:23;100106.78;;;6.48;68.62
68137;BME280;54939;50.826;9.030;2023-02-15T01:41:53;100100.63;;;6.47;68.79
68137;BME280;54939;50.826;9.030;2023-02-15T01:42:24;100109.44;;;6.48;68.88
68137;BME280;54939;50.826;9.030;2023-02-15T01:42:54;100099.69;;;6.48;68.70
68137;BME280;54939;50.826;9.030;2023-02-15T01:43:38;100105.84;;;6.49;68.71
68137;BME280;54939;50.826;9.030;2023-02-15T01:45:02;100103.06;;;6.50;68.62
68137;BME280;54939;50.826;9.030;2023-02-15T01:45:34;100102.34;;;6.48;69.00
68137;BME280;54939;50.826;9.030;2023-02-15T01:46:06;100101.38;;;6.49;68.89
68137;BME280;54939;50.826;9.030;2023-02-15T01:46:39;100103.19;;;6.49;68.78
68137;BME280;54939;50.826;9.030;2023-02-15T01:47:12;100109.34;;;6.49;68.90
68137;BME280;54939;50.826;9.030;2023-02-15T01:47:46;100108.50;;;6.49;68.78
68137;BME280;54939;50.826;9.030;2023-02-15T01:48:19;100110.22;;;6.50;68.74
68137;BME280;54939;50.826;9.030;2023-02-15T01:48:54;100103.19;;;6.49;68.90
68137;BME280;54939;50.826;9.030;2023-02-15T01:49:26;100104.03;;;6.49;68.64
68137;BME280;54939;50.826;9.030;2023-02-15T01:50:02;100102.34;;;6.48;68.97
68137;BME280;54939;50.826;9.030;2023-02-15T01:50:34;100112.94;;;6.48;68.85
68137;BME280;54939;50.826;9.030;2023-02-15T01:51:05;100105.84;;;6.49;68.98
68137;BME280;54939;50.826;9.030;2023-02-15T01:51:36;100104.03;;;6.49;68.76
68137;BME280;54939;50.826;9.030;2023-02-15T01:52:08;100101.28;;;6.51;68.76
68137;BME280;54939;50.826;9.030;2023-02-15T01:52:41;100104.03;;;6.49;68.64
68137;BME280;54939;50.826;9.030;2023-02-15T01:53:19;100104.03;;;6.49;68.51
68137;BME280;54939;50.826;9.030;2023-02-15T01:53:52;100096.16;;;6.48;68.34
68137;BME280;54939;50.826;9.030;2023-02-15T01:54:25;100110.38;;;6.47;68.54
68137;BME280;54939;50.826;9.030;2023-02-15T01:54:57;100102.34;;;6.48;68.87
68137;BME280;54939;50.826;9.030;2023-02-15T01:55:29;100104.13;;;6.48;68.78
68137;BME280;54939;50.826;9.030;2023-02-15T01:56:33;100105.94;;;6.47;68.83
68137;BME280;54939;50.826;9.030;2023-02-15T01:57:05;100105.06;;;6.47;68.65
68137;BME280;54939;50.826;9.030;2023-02-15T01:57:38;100099.69;;;6.48;68.84
68137;BME280;54939;50.826;9.030;2023-02-15T01:58:09;100093.53;;;6.48;68.68
68137;BME280;54939;50.826;9.030;2023-02-15T01:58:40;100096.09;;;6.49;68.92
68137;BME280;54939;50.826;9.030;2023-02-15T01:59:12;100099.69;;;6.48;68.51
68137;BME280;54939;50.826;9.030;2023-02-15T01:59:45;100098.81;;;6.48;68.80
68137;BME280;54939;50.826;9.030;2023-02-15T02:00:17;100097.03;;;6.48;68.72
68137;BME280;54939;50.826;9.030;2023-02-15T02:00:47;100093.53;;;6.48;68.75
68137;BME280;54939;50.826;9.030;2023-02-15T02:01:18;100093.59;;;6.46;68.80
68137;BME280;54939;50.826;9.030;2023-02-15T02:01:49;100095.31;;;6.47;68.85
68137;BME280;54939;50.826;9.030;2023-02-15T02:02:20;100092.66;;;6.47;68.84
68137;BME280;54939;50.826;9.030;2023-02-15T02:04:31;100096.16;;;6.48;68.73
68137;BME280;54939;50.826;9.030;2023-02-15T02:05:03;100097.03;;;6.48;69.06
68137;BME280;54939;50.826;9.030;2023-02-15T02:05:36;100092.56;;;6.49;68.70
68137;BME280;54939;50.826;9.030;2023-02-15T02:06:07;100097.88;;;6.49;68.92
68137;BME280;54939;50.826;9.030;2023-02-15T02:06:37;100092.56;;;6.49;68.68
68137;BME280;54939;50.826;9.030;2023-02-15T02:07:09;100092.56;;;6.49;68.74
68137;BME280;54939;50.826;9.030;2023-02-15T02:07:40;100091.72;;;6.48;68.72
68137;BME280;54939;50.826;9.030;2023-02-15T02:08:11;100090.00;;;6.47;68.34
68137;BME280;54939;50.826;9.030;2023-02-15T02:08:41;100088.22;;;6.48;68.53
68137;BME280;54939;50.826;9.030;2023-02-15T02:09:12;100090.00;;;6.47;68.62
68137;BME280;54939;50.826;9.030;2023-02-15T02:09:43;100094.47;;;6.47;68.75
68137;BME280;54939;50.826;9.030;2023-02-15T02:10:17;100086.50;;;6.47;68.55
68137;BME280;54939;50.826;9.030;2023-02-15T02:10:47;100091.81;;;6.47;68.97
68137;BME280;54939;50.826;9.030;2023-02-15T02:11:18;100093.59;;;6.46;68.73
68137;BME280;54939;50.826;9.030;2023-02-15T02:11:48;100092.75;;;6.46;68.79
68137;BME280;54939;50.826;9.030;2023-02-15T02:12:18;100087.44;;;6.46;68.96
68137;BME280;54939;50.826;9.030;2023-02-15T02:13:01;100090.00;;;6.47;68.73
68137;BME280;54939;50.826;9.030;2023-02-15T02:13:33;100094.47;;;6.47;68.87
68137;BME280;54939;50.826;9.030;2023-02-15T02:14:03;100091.81;;;6.47;68.79
68137;BME280;54939;50.826;9.030;2023-02-15T02:14:33;100087.34;;;6.47;68.67
68137;BME280;54939;50.826;9.030;2023-02-15T02:15:04;100093.53;;;6.48;68.79
68137;BME280;54939;50.826;9.030;2023-02-15T02:15:43;100086.41;;;6.48;68.64
68137;BME280;54939;50.826;9.030;2023-02-15T02:16:20;100087.28;;;6.49;68.96
68137;BME280;54939;50.826;9.030;2023-02-15T02:17:34;100085.56;;;6.48;68.58
68137;BME280;54939;50.826;9.030;2023-02-15T02:18:14;100084.69;;;6.47;68.71
68137;BME280;54939;50.826;9.030;2023-02-15T02:18:56;100082.91;;;6.48;68.82
68137;BME280;54939;50.826;9.030;2023-02-15T02:20:26;100081.09;;;6.48;68.62
68137;BME280;54939;50.826;9.030;2023-02-15T02:21:16;100080.25;;;6.48;68.64
68137;BME280;54939;50.826;9.030;2023-02-15T02:21:56;100074.94;;;6.48;68.69
68137;BME280;54939;50.826;9.030;2023-02-15T02:23:13;100068.03;;;6.45;68.80
68137;BME280;54939;50.826;9.030;2023-02-15T02:24:21;100069.72;;;6.46;68.53
68137;BME280;54939;50.826;9.030;2023-02-15T02:24:59;100072.38;;;6.46;68.63
68137;BME280;54939;50.826;9.030;2023-02-15T02:27:21;100067.94;;;6.47;68.69
68137;BME280;54939;50.826;9.030;2023-02-15T02:27:56;100066.22;;;6.46;68.61
68137;BME280;54939;50.826;9.030;2023-02-15T02:31:00;100065.28;;;6.47;68.69
68137;BME280;54939;50.826;9.030;2023-02-15T02:33:43;100068.03;;;6.45;68.69
68137;BME280;54939;50.826;9.030;2023-02-15T02:34:22;100065.38;;;6.45;68.97
68137;BME280;54939;50.826;9.030;2023-02-15T02:35:00;100060.91;;;6.46;68.88
68137;BME280;54939;50.826;9.030;2023-02-15T02:36:23;100071.53;;;6.46;68.82
68137;BME280;54939;50.826;9.030;2023-02-15T02:37:46;100064.44;;;6.46;68.67
68137;BME280;54939;50.826;9.030;2023-02-15T02:39:30;100068.03;;;6.45;68.84
68137;BME280;54939;50.826;9.030;2023-02-15T02:40:08;100058.34;;;6.44;68.52
68137;BME280;54939;50.826;9.030;2023-02-15T02:42:03;100059.28;;;6.43;68.66
68137;BME280;54939;50.826;9.030;2023-02-15T02:42:39;100060.16;;;6.44;68.65
68137;BME280;54939;50.826;9.030;2023-02-15T02:43:28;100053.03;;;6.44;68.66
68137;BME280;54939;50.826;9.030;2023-02-15T02:44:43;100058.47;;;6.43;68.75
68137;BME280;54939;50.826;9.030;2023-02-15T02:45:20;100055.81;;;6.43;68.81
68137;BME280;54939;50.826;9.030;2023-02-15T02:45:55;100059.41;;;6.42;68.96
68137;BME280;54939;50.826;9.030;2023-02-15T02:46:32;100063.78;;;6.43;68.96
68137;BME280;54939;50.826;9.030;2023-02-15T02:47:38;100057.63;;;6.42;68.98
68137;BME280;54939;50.826;9.030;2023-02-15T02:48:13;100058.47;;;6.43;68.76
68137;BME280;54939;50.826;9.030;2023-02-15T02:48:45;100056.63;;;6.43;68.62
68137;BME280;54939;50.826;9.030;2023-02-15T02:49:15;100054.97;;;6.42;68.26
68137;BME280;54939;50.826;9.030;2023-02-15T02:49:45;100057.50;;;6.44;68.73
68137;BME280;54939;50.826;9.030;2023-02-15T02:50:23;100058.34;;;6.44;68.96
68137;BME280;54939;50.826;9.030;2023-02-15T02:50:53;100061.00;;;6.44;68.72
68137;BME280;54939;50.826;9.030;2023-02-15T02:51:24;100047.84;;;6.43;68.66
68137;BME280;54939;50.826;9.030;2023-02-15T02:51:57;100059.28;;;6.43;68.69
68137;BME280;54939;50.826;9.030;2023-02-15T02:53:07;100051.34;;;6.43;68.53
68137;BME280;54939;50.826;9.030;2023-02-15T02:53:38;100053.16;;;6.43;68.73
68137;BME280;54939;50.826;9.030;2023-02-15T02:54:09;100054.97;;;6.42;68.85
68137;BME280;54939;50.826;9.030;2023-02-15T02:54:39;100046.03;;;6.43;68.67
68137;BME280;54939;50.826;9.030;2023-02-15T02:55:17;100046.03;;;6.43;68.69
68137;BME280;54939;50.826;9.030;2023-02-15T02:55:50;100050.38;;;6.44;68.36
68137;BME280;54939;50.826;9.030;2023-02-15T02:56:27;100043.28;;;6.45;68.75
68137;BME280;54939;50.826;9.030;2023-02-15T02:56:58;100036.28;;;6.44;68.79
68137;BME280;54939;50.826;9.030;2023-02-15T02:57:29;100043.28;;;6.45;68.55
68137;BME280;54939;50.826;9.030;2023-02-15T02:58:04;100038.06;;;6.43;68.57
68137;BME280;54939;50.826;9.030;2023-02-15T02:58:37;100033.63;;;6.44;68.52
68137;BME280;54939;50.826;9.030;2023-02-15T02:59:11;100028.31;;;6.44;68.47
68137;BME280;54939;50.826;9.030;2023-02-15T02:59:43;100031.81;;;6.44;68.64
68137;BME280;54939;50.826;9.030;2023-02-15T03:00:16;100030.97;;;6.44;68.63
68137;BME280;54939;50.826;9.030;2023-02-15T03:00:54;100026.50;;;6.44;68.68
68137;BME280;54939;50.826;9.030;2023-02-15T03:02:16;100028.31;;;6.44;68.77
68137;BME280;54939;50.826;9.030;2023-02-15T03:02:48;100027.38;;;6.45;68.44
68137;BME280;54939;50.826;9.030;2023-02-15T03:03:22;100031.81;;;6.44;68.93
68137;BME280;54939;50.826;9.030;2023-02-15T03:03:59;100023.78;;;6.46;68.68
68137;BME280;54939;50.826;9.030;2023-02-15T03:04:33;100024.72;;;6.45;68.65
68137;BME280;54939;50.826;9.030;2023-02-15T03:05:06;100023.00;;;6.44;68.73
68137;BME280;54939;50.826;9.030;2023-02-15T03:05:39;100024.81;;;6.43;68.72
68137;BME280;54939;50.826;9.030;2023-02-15T03:06:12;100030.03;;;6.45;68.63
68137;BME280;54939;50.826;9.030;2023-02-15T03:07:06;100027.38;;;6.45;68.64